Petersburg, New York
Current Conditions -  °F | °C
As of 4:52 PM on Thursday 18 Dec 2014 (Local Time) from KAQW Reporting Station
Overcast Overcast  
Wind Chill: 24°   Ceiling: 2300
Heat Index: 33°   Visibility: 10mi
Dew Point: 26°   Wind: 13mph
Humidity: 75%   Direction: 260°W
Pressure: 29.89"   Gusts: NA
Location:  42.75°N, 73.35°W
Report Text: KAQW 182152Z AUTO 26011KT 10SM OVC023 01/M03 A2989 RMK AO2 SLP129 T00061033
Loading
Personal Weather Stations






























Interactive Weather Map New forecast layout! Learn more

10-Day Weather Forecast

Advertisements
Track Severe Weather on mobile